createdAt,value
2022-11-01T00:07:57.803Z,72.92
2022-11-01T00:17:59.476Z,72.48
2022-11-01T00:28:01.093Z,72.76
2022-11-01T00:38:03.745Z,72.51
2022-11-01T00:48:05.889Z,72.77
2022-11-01T00:58:08.446Z,72.70
2022-11-01T01:08:10.287Z,72.86
2022-11-01T01:18:11.846Z,73.29
2022-11-01T01:28:13.506Z,73.20
2022-11-01T01:38:15.021Z,73.13
2022-11-01T01:48:26.875Z,72.76
2022-11-01T01:58:33.255Z,72.47
2022-11-01T02:08:37.948Z,72.86
2022-11-01T02:19:05.882Z,72.76
2022-11-01T02:29:28.556Z,72.78
2022-11-01T02:39:34.515Z,72.51
2022-11-01T02:49:40.482Z,71.98
2022-11-01T02:59:47.413Z,71.55
2022-11-01T03:09:48.871Z,71.82
2022-11-01T03:19:58.832Z,71.88
2022-11-01T03:30:14.053Z,71.51
2022-11-01T03:40:17.993Z,71.66
2022-11-01T03:50:22.846Z,71.52
2022-11-01T04:00:28.418Z,72.50
2022-11-01T04:10:30.327Z,72.60
2022-11-01T04:20:35.265Z,72.56
2022-11-01T04:30:36.700Z,71.71
2022-11-01T04:40:38.951Z,71.55
2022-11-01T04:50:41.147Z,71.48
2022-11-01T05:00:44.011Z,71.50
2022-11-01T05:10:45.616Z,70.99
2022-11-01T05:20:47.085Z,71.05
2022-11-01T05:30:48.513Z,71.21
2022-11-01T05:40:50.528Z,71.16
2022-11-01T05:50:51.985Z,71.16
2022-11-01T06:01:00.761Z,71.39
2022-11-01T06:11:04.512Z,71.24
2022-11-01T06:21:06.186Z,71.15
2022-11-01T06:31:07.638Z,70.93
2022-11-01T06:41:09.267Z,70.37
2022-11-01T06:51:10.877Z,70.31
2022-11-01T07:01:12.423Z,69.55
2022-11-01T07:11:13.940Z,68.05
2022-11-01T07:21:15.449Z,66.11
2022-11-01T07:31:16.958Z,65.58
2022-11-01T07:41:18.423Z,65.16
2022-11-01T07:51:19.901Z,61.29
2022-11-01T08:01:21.501Z,60.96
2022-11-01T08:11:23.301Z,60.92
2022-11-01T08:21:24.740Z,60.54
2022-11-01T08:31:26.231Z,58.15
2022-11-01T08:41:30.498Z,55.53
2022-11-01T08:51:32.664Z,52.21
2022-11-01T09:01:34.723Z,44.41
2022-11-01T09:11:36.837Z,45.57
2022-11-01T09:21:38.269Z,47.29
2022-11-01T09:31:40.323Z,48.26
2022-11-01T09:41:50.697Z,48.38
2022-11-01T09:51:52.558Z,49.12
2022-11-01T10:02:26.310Z,45.39
2022-11-01T10:13:05.201Z,44.72
2022-11-01T10:23:06.736Z,42.21
2022-11-01T10:33:27.692Z,45.14
2022-11-01T10:43:32.695Z,49.08
2022-11-01T10:53:40.954Z,50.17
2022-11-01T11:03:46.321Z,50.31
2022-11-01T11:13:54.927Z,50.66
2022-11-01T11:23:56.462Z,50.76
2022-11-01T11:34:05.288Z,48.66
2022-11-01T11:44:38.973Z,47.47
2022-11-01T11:54:41.514Z,47.37
2022-11-01T12:04:51.450Z,46.80
2022-11-01T12:14:56.736Z,47.24
2022-11-01T12:25:05.025Z,47.81
2022-11-01T12:35:16.704Z,47.56
2022-11-01T12:45:43.720Z,47.94
2022-11-01T12:55:45.280Z,49.79
2022-11-01T13:06:13.173Z,50.27
2022-11-01T13:16:24.870Z,51.15
2022-11-01T13:26:35.607Z,52.09
2022-11-01T13:36:57.645Z,52.96
2022-11-01T13:47:35.736Z,53.05
2022-11-01T13:57:44.773Z,53.81
2022-11-01T14:07:46.710Z,54.75
2022-11-01T14:17:57.581Z,55.65
2022-11-01T14:28:17.441Z,56.77
2022-11-01T14:38:28.514Z,57.88
2022-11-01T14:48:37.850Z,57.60
2022-11-01T14:58:39.644Z,58.16
2022-11-01T15:08:41.637Z,58.95
2022-11-01T15:18:51.013Z,59.68
2022-11-01T15:29:04.755Z,60.36
2022-11-01T15:39:23.650Z,61.08
2022-11-01T15:49:37.470Z,61.85
2022-11-01T16:00:06.613Z,62.59
2022-11-01T16:10:20.771Z,63.36
2022-11-01T16:20:43.209Z,64.10
2022-11-01T16:30:46.367Z,64.68
2022-11-01T16:40:54.626Z,65.17
2022-11-01T16:50:58.170Z,65.30
2022-11-01T17:01:00.540Z,65.60
2022-11-01T17:11:02.050Z,65.77
2022-11-01T17:21:07.843Z,66.26
2022-11-01T17:31:09.448Z,66.24
2022-11-01T17:41:16.933Z,66.20
2022-11-01T17:51:18.481Z,66.22
2022-11-01T18:01:21.291Z,66.37
2022-11-01T18:11:41.782Z,66.26
2022-11-01T18:22:32.360Z,66.30
2022-11-01T18:32:40.069Z,66.64
2022-11-01T18:42:42.254Z,67.55
2022-11-01T18:52:44.229Z,67.66
2022-11-01T19:02:45.709Z,67.72
2022-11-01T19:12:54.829Z,68.20
2022-11-01T19:23:02.373Z,68.64
2022-11-01T19:33:22.527Z,69.72
2022-11-01T19:43:26.786Z,70.07
2022-11-01T19:53:32.032Z,70.01
2022-11-01T20:03:39.586Z,70.51
2022-11-01T20:13:41.134Z,70.65
2022-11-01T20:23:42.630Z,71.39
2022-11-01T20:33:46.612Z,71.61
2022-11-01T20:43:48.134Z,71.61
2022-11-01T20:53:49.594Z,71.74
2022-11-01T21:03:54.660Z,71.91
2022-11-01T21:13:56.091Z,72.13
2022-11-01T21:23:58.508Z,72.10
2022-11-01T21:34:22.068Z,71.98
2022-11-01T21:44:27.955Z,72.06
2022-11-01T21:54:31.676Z,72.34
2022-11-01T22:04:33.567Z,72.34
2022-11-01T22:14:35.443Z,72.61
2022-11-01T22:24:36.878Z,72.50
2022-11-01T22:34:38.353Z,72.59
2022-11-01T22:44:42.202Z,72.26
2022-11-01T22:54:48.332Z,72.71
2022-11-01T23:04:49.823Z,72.76
2022-11-01T23:14:52.521Z,72.92
2022-11-01T23:24:54.043Z,73.41
2022-11-01T23:35:11.691Z,73.43
2022-11-01T23:45:24.743Z,72.93
2022-11-01T23:55:29.500Z,73.27
